sensor_id;sensor_type;location;lat;lon;timestamp;P1;durP1;ratioP1;P2;durP2;ratioP2
11328;SDS011;5719;42.714;23.732;2023-05-10T00:01:30;2.72;;;2.53;;
11328;SDS011;5719;42.714;23.732;2023-05-10T00:03:57;2.65;;;2.55;;
11328;SDS011;5719;42.714;23.732;2023-05-10T00:06:25;2.65;;;2.45;;
11328;SDS011;5719;42.714;23.732;2023-05-10T00:08:53;2.75;;;2.55;;
11328;SDS011;5719;42.714;23.732;2023-05-10T00:11:19;2.40;;;2.20;;
11328;SDS011;5719;42.714;23.732;2023-05-10T00:13:46;2.63;;;2.42;;
11328;SDS011;5719;42.714;23.732;2023-05-10T00:16:13;2.10;;;2.00;;
11328;SDS011;5719;42.714;23.732;2023-05-10T00:18:40;2.13;;;2.03;;
11328;SDS011;5719;42.714;23.732;2023-05-10T00:21:07;2.20;;;2.00;;
11328;SDS011;5719;42.714;23.732;2023-05-10T00:23:35;2.08;;;1.98;;
11328;SDS011;5719;42.714;23.732;2023-05-10T00:26:02;2.65;;;1.90;;
11328;SDS011;5719;42.714;23.732;2023-05-10T00:28:29;2.20;;;2.10;;
11328;SDS011;5719;42.714;23.732;2023-05-10T00:30:56;1.88;;;1.77;;
11328;SDS011;5719;42.714;23.732;2023-05-10T00:33:23;2.20;;;1.98;;
11328;SDS011;5719;42.714;23.732;2023-05-10T00:35:49;3.40;;;2.08;;
11328;SDS011;5719;42.714;23.732;2023-05-10T00:38:16;2.00;;;1.90;;
11328;SDS011;5719;42.714;23.732;2023-05-10T00:40:45;2.00;;;1.90;;
11328;SDS011;5719;42.714;23.732;2023-05-10T00:43:11;2.55;;;2.00;;
11328;SDS011;5719;42.714;23.732;2023-05-10T00:45:38;2.08;;;1.98;;
11328;SDS011;5719;42.714;23.732;2023-05-10T00:48:06;2.50;;;2.00;;
11328;SDS011;5719;42.714;23.732;2023-05-10T00:50:33;2.20;;;2.10;;
11328;SDS011;5719;42.714;23.732;2023-05-10T00:53:01;2.00;;;1.90;;
11328;SDS011;5719;42.714;23.732;2023-05-10T00:55:28;2.88;;;1.90;;
11328;SDS011;5719;42.714;23.732;2023-05-10T00:57:57;2.30;;;2.20;;
11328;SDS011;5719;42.714;23.732;2023-05-10T01:00:24;1.70;;;1.60;;
11328;SDS011;5719;42.714;23.732;2023-05-10T01:02:52;3.25;;;2.10;;
11328;SDS011;5719;42.714;23.732;2023-05-10T01:05:19;1.80;;;1.70;;
11328;SDS011;5719;42.714;23.732;2023-05-10T01:07:46;2.70;;;2.10;;
11328;SDS011;5719;42.714;23.732;2023-05-10T01:10:13;2.00;;;1.90;;
11328;SDS011;5719;42.714;23.732;2023-05-10T01:12:41;1.98;;;1.88;;
11328;SDS011;5719;42.714;23.732;2023-05-10T01:15:11;3.53;;;2.20;;
11328;SDS011;5719;42.714;23.732;2023-05-10T01:17:40;2.63;;;2.20;;
11328;SDS011;5719;42.714;23.732;2023-05-10T01:20:10;2.60;;;1.90;;
11328;SDS011;5719;42.714;23.732;2023-05-10T01:22:42;2.40;;;2.20;;
11328;SDS011;5719;42.714;23.732;2023-05-10T01:25:35;2.55;;;2.10;;
11328;SDS011;5719;42.714;23.732;2023-05-10T01:31:35;3.47;;;2.20;;
11328;SDS011;5719;42.714;23.732;2023-05-10T01:34:35;2.28;;;2.17;;
11328;SDS011;5719;42.714;23.732;2023-05-10T01:37:06;2.50;;;2.30;;
11328;SDS011;5719;42.714;23.732;2023-05-10T01:39:38;3.33;;;3.03;;
11328;SDS011;5719;42.714;23.732;2023-05-10T01:42:11;2.30;;;2.20;;
11328;SDS011;5719;42.714;23.732;2023-05-10T01:44:42;2.67;;;2.15;;
11328;SDS011;5719;42.714;23.732;2023-05-10T01:47:16;2.20;;;2.00;;
11328;SDS011;5719;42.714;23.732;2023-05-10T01:49:49;2.42;;;2.22;;
11328;SDS011;5719;42.714;23.732;2023-05-10T01:52:18;2.00;;;1.90;;
11328;SDS011;5719;42.714;23.732;2023-05-10T01:54:49;2.00;;;1.90;;
11328;SDS011;5719;42.714;23.732;2023-05-10T01:57:20;4.00;;;2.25;;
11328;SDS011;5719;42.714;23.732;2023-05-10T01:59:50;3.08;;;2.88;;
11328;SDS011;5719;42.714;23.732;2023-05-10T02:02:18;5.35;;;3.17;;
11328;SDS011;5719;42.714;23.732;2023-05-10T02:04:48;6.90;;;3.40;;
11328;SDS011;5719;42.714;23.732;2023-05-10T02:07:16;7.82;;;3.97;;
11328;SDS011;5719;42.714;23.732;2023-05-10T02:09:44;4.07;;;3.67;;
11328;SDS011;5719;42.714;23.732;2023-05-10T02:12:13;10.13;;;4.18;;
11328;SDS011;5719;42.714;23.732;2023-05-10T02:14:41;7.07;;;4.70;;
11328;SDS011;5719;42.714;23.732;2023-05-10T02:17:09;7.88;;;3.90;;
11328;SDS011;5719;42.714;23.732;2023-05-10T02:19:38;5.72;;;3.90;;
11328;SDS011;5719;42.714;23.732;2023-05-10T02:22:11;7.78;;;4.10;;
11328;SDS011;5719;42.714;23.732;2023-05-10T02:24:39;6.72;;;4.40;;
11328;SDS011;5719;42.714;23.732;2023-05-10T02:27:07;6.22;;;4.18;;
11328;SDS011;5719;42.714;23.732;2023-05-10T02:29:36;3.65;;;3.10;;
11328;SDS011;5719;42.714;23.732;2023-05-10T02:32:04;3.85;;;3.45;;
11328;SDS011;5719;42.714;23.732;2023-05-10T02:34:32;4.53;;;3.50;;
11328;SDS011;5719;42.714;23.732;2023-05-10T02:37:00;3.45;;;3.15;;
11328;SDS011;5719;42.714;23.732;2023-05-10T02:39:30;6.05;;;3.47;;
11328;SDS011;5719;42.714;23.732;2023-05-10T02:41:58;5.97;;;3.75;;
11328;SDS011;5719;42.714;23.732;2023-05-10T02:44:27;5.65;;;3.85;;
11328;SDS011;5719;42.714;23.732;2023-05-10T02:46:56;5.53;;;4.43;;
11328;SDS011;5719;42.714;23.732;2023-05-10T02:49:23;5.78;;;3.50;;
11328;SDS011;5719;42.714;23.732;2023-05-10T02:51:50;5.13;;;3.22;;
11328;SDS011;5719;42.714;23.732;2023-05-10T02:54:27;4.57;;;3.22;;
11328;SDS011;5719;42.714;23.732;2023-05-10T02:57:00;4.85;;;3.83;;
11328;SDS011;5719;42.714;23.732;2023-05-10T02:59:30;3.75;;;3.45;;
11328;SDS011;5719;42.714;23.732;2023-05-10T03:01:58;5.93;;;3.53;;
11328;SDS011;5719;42.714;23.732;2023-05-10T03:04:25;8.27;;;3.83;;
11328;SDS011;5719;42.714;23.732;2023-05-10T03:06:52;5.80;;;3.80;;
11328;SDS011;5719;42.714;23.732;2023-05-10T03:09:19;7.40;;;4.22;;
11328;SDS011;5719;42.714;23.732;2023-05-10T03:11:50;5.68;;;3.78;;
11328;SDS011;5719;42.714;23.732;2023-05-10T03:14:26;6.95;;;3.95;;
11328;SDS011;5719;42.714;23.732;2023-05-10T03:17:04;6.05;;;4.25;;
11328;SDS011;5719;42.714;23.732;2023-05-10T03:19:37;7.97;;;3.78;;
11328;SDS011;5719;42.714;23.732;2023-05-10T03:24:37;5.10;;;3.03;;
11328;SDS011;5719;42.714;23.732;2023-05-10T03:27:09;3.60;;;3.30;;
11328;SDS011;5719;42.714;23.732;2023-05-10T03:29:37;4.22;;;3.13;;
11328;SDS011;5719;42.714;23.732;2023-05-10T03:32:05;4.38;;;3.22;;
11328;SDS011;5719;42.714;23.732;2023-05-10T03:34:32;4.47;;;2.92;;
11328;SDS011;5719;42.714;23.732;2023-05-10T03:36:59;4.22;;;3.40;;
11328;SDS011;5719;42.714;23.732;2023-05-10T03:39:26;9.98;;;3.13;;
11328;SDS011;5719;42.714;23.732;2023-05-10T03:41:53;4.50;;;3.28;;
11328;SDS011;5719;42.714;23.732;2023-05-10T03:44:21;3.90;;;3.60;;
11328;SDS011;5719;42.714;23.732;2023-05-10T03:46:48;4.22;;;3.55;;
11328;SDS011;5719;42.714;23.732;2023-05-10T03:49:14;4.60;;;3.30;;
11328;SDS011;5719;42.714;23.732;2023-05-10T03:51:41;3.67;;;2.95;;
11328;SDS011;5719;42.714;23.732;2023-05-10T03:54:08;6.07;;;2.80;;
11328;SDS011;5719;42.714;23.732;2023-05-10T03:56:35;3.90;;;2.92;;
11328;SDS011;5719;42.714;23.732;2023-05-10T03:59:02;6.43;;;2.92;;
11328;SDS011;5719;42.714;23.732;2023-05-10T04:01:33;3.22;;;2.70;;
11328;SDS011;5719;42.714;23.732;2023-05-10T04:04:00;3.28;;;2.70;;
11328;SDS011;5719;42.714;23.732;2023-05-10T04:06:27;5.60;;;2.92;;
11328;SDS011;5719;42.714;23.732;2023-05-10T04:08:54;5.57;;;2.67;;
11328;SDS011;5719;42.714;23.732;2023-05-10T04:11:21;5.68;;;2.70;;
11328;SDS011;5719;42.714;23.732;2023-05-10T04:13:49;3.75;;;2.83;;
11328;SDS011;5719;42.714;23.732;2023-05-10T04:16:16;5.00;;;2.67;;
11328;SDS011;5719;42.714;23.732;2023-05-10T04:18:44;5.00;;;2.90;;
11328;SDS011;5719;42.714;23.732;2023-05-10T04:21:11;3.33;;;2.97;;
11328;SDS011;5719;42.714;23.732;2023-05-10T04:23:39;4.25;;;3.03;;
11328;SDS011;5719;42.714;23.732;2023-05-10T04:26:06;5.28;;;2.63;;
11328;SDS011;5719;42.714;23.732;2023-05-10T04:28:33;4.40;;;2.50;;
11328;SDS011;5719;42.714;23.732;2023-05-10T04:31:00;4.05;;;2.90;;
11328;SDS011;5719;42.714;23.732;2023-05-10T04:33:28;3.67;;;2.50;;
11328;SDS011;5719;42.714;23.732;2023-05-10T04:35:57;3.28;;;2.67;;
11328;SDS011;5719;42.714;23.732;2023-05-10T04:38:24;3.63;;;2.38;;
11328;SDS011;5719;42.714;23.732;2023-05-10T04:40:52;4.70;;;2.40;;
11328;SDS011;5719;42.714;23.732;2023-05-10T04:43:19;2.85;;;2.33;;
11328;SDS011;5719;42.714;23.732;2023-05-10T04:45:45;4.28;;;2.42;;
11328;SDS011;5719;42.714;23.732;2023-05-10T04:48:12;3.70;;;2.10;;
11328;SDS011;5719;42.714;23.732;2023-05-10T04:50:39;6.45;;;2.40;;
11328;SDS011;5719;42.714;23.732;2023-05-10T04:53:07;4.47;;;2.40;;
11328;SDS011;5719;42.714;23.732;2023-05-10T04:55:34;3.45;;;2.78;;
11328;SDS011;5719;42.714;23.732;2023-05-10T04:58:02;2.65;;;2.30;;
11328;SDS011;5719;42.714;23.732;2023-05-10T05:00:28;2.40;;;2.20;;
11328;SDS011;5719;42.714;23.732;2023-05-10T05:02:55;4.65;;;2.50;;
11328;SDS011;5719;42.714;23.732;2023-05-10T05:05:22;5.22;;;2.22;;
11328;SDS011;5719;42.714;23.732;2023-05-10T05:07:49;11.05;;;2.50;;
11328;SDS011;5719;42.714;23.732;2023-05-10T05:10:18;4.45;;;2.25;;
11328;SDS011;5719;42.714;23.732;2023-05-10T05:12:44;3.28;;;2.20;;
11328;SDS011;5719;42.714;23.732;2023-05-10T05:15:11;3.08;;;2.20;;
11328;SDS011;5719;42.714;23.732;2023-05-10T05:17:40;5.30;;;2.17;;
11328;SDS011;5719;42.714;23.732;2023-05-10T05:20:07;2.20;;;2.05;;
11328;SDS011;5719;42.714;23.732;2023-05-10T05:22:35;6.18;;;2.38;;
11328;SDS011;5719;42.714;23.732;2023-05-10T05:25:02;3.55;;;2.08;;
11328;SDS011;5719;42.714;23.732;2023-05-10T05:27:31;4.82;;;2.25;;
11328;SDS011;5719;42.714;23.732;2023-05-10T05:29:58;4.15;;;2.05;;
11328;SDS011;5719;42.714;23.732;2023-05-10T05:32:25;2.83;;;2.22;;
11328;SDS011;5719;42.714;23.732;2023-05-10T05:34:52;5.13;;;2.10;;
11328;SDS011;5719;42.714;23.732;2023-05-10T05:37:20;6.93;;;2.40;;
11328;SDS011;5719;42.714;23.732;2023-05-10T05:39:47;3.33;;;2.10;;
11328;SDS011;5719;42.714;23.732;2023-05-10T05:42:14;2.40;;;2.10;;
11328;SDS011;5719;42.714;23.732;2023-05-10T05:44:45;2.60;;;2.40;;
11328;SDS011;5719;42.714;23.732;2023-05-10T05:47:12;3.25;;;2.10;;
11328;SDS011;5719;42.714;23.732;2023-05-10T05:49:39;4.70;;;2.35;;
11328;SDS011;5719;42.714;23.732;2023-05-10T05:52:06;3.35;;;2.40;;
11328;SDS011;5719;42.714;23.732;2023-05-10T05:54:32;3.13;;;2.22;;
11328;SDS011;5719;42.714;23.732;2023-05-10T05:57:00;2.15;;;2.00;;
11328;SDS011;5719;42.714;23.732;2023-05-10T05:59:27;3.63;;;1.85;;
11328;SDS011;5719;42.714;23.732;2023-05-10T06:01:55;2.15;;;1.95;;
11328;SDS011;5719;42.714;23.732;2023-05-10T06:04:22;2.30;;;2.10;;
11328;SDS011;5719;42.714;23.732;2023-05-10T06:06:49;4.32;;;2.17;;
11328;SDS011;5719;42.714;23.732;2023-05-10T06:09:16;3.63;;;1.92;;
11328;SDS011;5719;42.714;23.732;2023-05-10T06:11:43;3.88;;;2.17;;
11328;SDS011;5719;42.714;23.732;2023-05-10T06:14:10;4.63;;;2.67;;
11328;SDS011;5719;42.714;23.732;2023-05-10T06:16:37;2.33;;;2.13;;
11328;SDS011;5719;42.714;23.732;2023-05-10T06:19:05;2.42;;;2.10;;
11328;SDS011;5719;42.714;23.732;2023-05-10T06:21:32;2.63;;;2.20;;
11328;SDS011;5719;42.714;23.732;2023-05-10T06:23:59;2.65;;;2.30;;
11328;SDS011;5719;42.714;23.732;2023-05-10T06:26:27;2.40;;;1.88;;
11328;SDS011;5719;42.714;23.732;2023-05-10T06:28:54;2.33;;;2.13;;
11328;SDS011;5719;42.714;23.732;2023-05-10T06:31:21;2.40;;;2.20;;
11328;SDS011;5719;42.714;23.732;2023-05-10T06:33:48;2.38;;;2.08;;
11328;SDS011;5719;42.714;23.732;2023-05-10T06:36:16;5.00;;;1.98;;
11328;SDS011;5719;42.714;23.732;2023-05-10T06:38:43;1.85;;;1.73;;
11328;SDS011;5719;42.714;23.732;2023-05-10T06:41:10;2.85;;;1.98;;
11328;SDS011;5719;42.714;23.732;2023-05-10T06:43:37;5.63;;;2.08;;
11328;SDS011;5719;42.714;23.732;2023-05-10T06:46:06;2.78;;;1.90;;
11328;SDS011;5719;42.714;23.732;2023-05-10T06:48:33;2.75;;;1.90;;
11328;SDS011;5719;42.714;23.732;2023-05-10T06:51:00;2.63;;;2.00;;
11328;SDS011;5719;42.714;23.732;2023-05-10T06:53:28;2.72;;;1.98;;
11328;SDS011;5719;42.714;23.732;2023-05-10T06:55:55;3.88;;;2.17;;
11328;SDS011;5719;42.714;23.732;2023-05-10T06:58:23;2.00;;;1.90;;
11328;SDS011;5719;42.714;23.732;2023-05-10T07:00:50;3.00;;;1.80;;
11328;SDS011;5719;42.714;23.732;2023-05-10T07:03:17;1.95;;;1.70;;
11328;SDS011;5719;42.714;23.732;2023-05-10T07:05:44;1.70;;;1.60;;
11328;SDS011;5719;42.714;23.732;2023-05-10T07:08:11;7.38;;;6.50;;
11328;SDS011;5719;42.714;23.732;2023-05-10T08:04:47;8.05;;;2.40;;
11328;SDS011;5719;42.714;23.732;2023-05-10T08:07:14;4.00;;;2.67;;
11328;SDS011;5719;42.714;23.732;2023-05-10T08:09:41;3.58;;;2.67;;
11328;SDS011;5719;42.714;23.732;2023-05-10T08:12:08;6.78;;;2.78;;
11328;SDS011;5719;42.714;23.732;2023-05-10T08:14:35;4.78;;;2.80;;
11328;SDS011;5719;42.714;23.732;2023-05-10T08:17:02;5.70;;;2.60;;
11328;SDS011;5719;42.714;23.732;2023-05-10T08:19:29;4.88;;;2.80;;
11328;SDS011;5719;42.714;23.732;2023-05-10T08:21:58;5.43;;;2.78;;
11328;SDS011;5719;42.714;23.732;2023-05-10T08:24:25;5.18;;;3.03;;
11328;SDS011;5719;42.714;23.732;2023-05-10T08:26:52;15.55;;;2.95;;
11328;SDS011;5719;42.714;23.732;2023-05-10T08:29:19;6.45;;;2.70;;
11328;SDS011;5719;42.714;23.732;2023-05-10T08:31:46;4.53;;;3.20;;
11328;SDS011;5719;42.714;23.732;2023-05-10T08:34:13;7.22;;;3.33;;
11328;SDS011;5719;42.714;23.732;2023-05-10T08:36:40;8.13;;;2.97;;
11328;SDS011;5719;42.714;23.732;2023-05-10T08:39:08;3.00;;;2.70;;
11328;SDS011;5719;42.714;23.732;2023-05-10T08:41:35;6.95;;;3.05;;
11328;SDS011;5719;42.714;23.732;2023-05-10T08:44:05;5.82;;;2.90;;
11328;SDS011;5719;42.714;23.732;2023-05-10T08:46:34;4.85;;;2.60;;
11328;SDS011;5719;42.714;23.732;2023-05-10T08:49:05;3.60;;;2.78;;
11328;SDS011;5719;42.714;23.732;2023-05-10T08:51:35;9.75;;;2.60;;
11328;SDS011;5719;42.714;23.732;2023-05-10T08:54:06;2.73;;;2.23;;
11328;SDS011;5719;42.714;23.732;2023-05-10T08:56:35;8.25;;;2.67;;
11328;SDS011;5719;42.714;23.732;2023-05-10T08:59:03;2.53;;;2.33;;
11328;SDS011;5719;42.714;23.732;2023-05-10T09:01:30;4.13;;;2.60;;
11328;SDS011;5719;42.714;23.732;2023-05-10T09:03:58;3.90;;;2.50;;
11328;SDS011;5719;42.714;23.732;2023-05-10T09:06:25;4.15;;;2.20;;
11328;SDS011;5719;42.714;23.732;2023-05-10T09:08:52;7.30;;;2.67;;
11328;SDS011;5719;42.714;23.732;2023-05-10T09:11:19;7.90;;;2.30;;
11328;SDS011;5719;42.714;23.732;2023-05-10T09:13:48;2.25;;;2.05;;
11328;SDS011;5719;42.714;23.732;2023-05-10T09:16:18;2.80;;;2.13;;
11328;SDS011;5719;42.714;23.732;2023-05-10T09:18:45;3.17;;;2.17;;
11328;SDS011;5719;42.714;23.732;2023-05-10T09:21:12;8.02;;;2.80;;
11328;SDS011;5719;42.714;23.732;2023-05-10T09:23:42;2.40;;;2.20;;
11328;SDS011;5719;42.714;23.732;2023-05-10T09:26:09;4.63;;;2.28;;
11328;SDS011;5719;42.714;23.732;2023-05-10T09:28:49;3.55;;;2.50;;
11328;SDS011;5719;42.714;23.732;2023-05-10T09:31:18;3.78;;;2.20;;
11328;SDS011;5719;42.714;23.732;2023-05-10T09:33:46;4.20;;;2.85;;
11328;SDS011;5719;42.714;23.732;2023-05-10T09:36:13;2.20;;;2.10;;
11328;SDS011;5719;42.714;23.732;2023-05-10T09:38:47;5.65;;;2.45;;
11328;SDS011;5719;42.714;23.732;2023-05-10T09:41:17;3.08;;;2.40;;
11328;SDS011;5719;42.714;23.732;2023-05-10T09:43:45;3.72;;;1.90;;
11328;SDS011;5719;42.714;23.732;2023-05-10T09:46:13;5.70;;;2.25;;
11328;SDS011;5719;42.714;23.732;2023-05-10T09:48:41;4.75;;;2.10;;
11328;SDS011;5719;42.714;23.732;2023-05-10T09:51:10;7.03;;;2.47;;
11328;SDS011;5719;42.714;23.732;2023-05-10T09:53:36;5.93;;;2.10;;
11328;SDS011;5719;42.714;23.732;2023-05-10T09:56:03;2.25;;;1.88;;
11328;SDS011;5719;42.714;23.732;2023-05-10T09:58:30;2.42;;;2.20;;
11328;SDS011;5719;42.714;23.732;2023-05-10T10:01:03;4.35;;;2.15;;
11328;SDS011;5719;42.714;23.732;2023-05-10T10:03:31;3.08;;;2.03;;
11328;SDS011;5719;42.714;23.732;2023-05-10T10:05:58;2.33;;;2.17;;
11328;SDS011;5719;42.714;23.732;2023-05-10T10:08:25;4.68;;;2.40;;
11328;SDS011;5719;42.714;23.732;2023-05-10T10:10:53;5.15;;;1.92;;
11328;SDS011;5719;42.714;23.732;2023-05-10T10:13:20;3.08;;;1.75;;
11328;SDS011;5719;42.714;23.732;2023-05-10T10:15:47;2.05;;;1.95;;
11328;SDS011;5719;42.714;23.732;2023-05-10T10:18:16;2.65;;;1.88;;
11328;SDS011;5719;42.714;23.732;2023-05-10T10:20:50;4.40;;;1.90;;
11328;SDS011;5719;42.714;23.732;2023-05-10T10:23:16;5.63;;;1.88;;
11328;SDS011;5719;42.714;23.732;2023-05-10T10:25:44;3.30;;;1.88;;
11328;SDS011;5719;42.714;23.732;2023-05-10T10:28:16;5.70;;;2.30;;
11328;SDS011;5719;42.714;23.732;2023-05-10T10:30:51;2.40;;;1.88;;
11328;SDS011;5719;42.714;23.732;2023-05-10T10:33:33;2.30;;;2.10;;
11328;SDS011;5719;42.714;23.732;2023-05-10T10:36:08;4.95;;;1.95;;
11328;SDS011;5719;42.714;23.732;2023-05-10T10:38:36;2.45;;;1.90;;
11328;SDS011;5719;42.714;23.732;2023-05-10T10:41:09;2.35;;;2.00;;
11328;SDS011;5719;42.714;23.732;2023-05-10T10:47:21;4.90;;;1.95;;
11328;SDS011;5719;42.714;23.732;2023-05-10T10:50:04;3.60;;;2.10;;
11328;SDS011;5719;42.714;23.732;2023-05-10T10:52:34;5.80;;;2.38;;
11328;SDS011;5719;42.714;23.732;2023-05-10T10:55:02;2.63;;;1.77;;
11328;SDS011;5719;42.714;23.732;2023-05-10T10:57:32;2.35;;;2.00;;
11328;SDS011;5719;42.714;23.732;2023-05-10T11:03:00;2.58;;;1.80;;
11328;SDS011;5719;42.714;23.732;2023-05-10T11:05:35;2.53;;;2.15;;
11328;SDS011;5719;42.714;23.732;2023-05-10T11:08:09;3.50;;;2.47;;
11328;SDS011;5719;42.714;23.732;2023-05-10T11:10:38;4.40;;;2.70;;
11328;SDS011;5719;42.714;23.732;2023-05-10T11:13:06;4.07;;;2.28;;
11328;SDS011;5719;42.714;23.732;2023-05-10T11:15:34;5.00;;;2.30;;
11328;SDS011;5719;42.714;23.732;2023-05-10T11:18:16;2.42;;;1.90;;
11328;SDS011;5719;42.714;23.732;2023-05-10T11:20:44;7.80;;;2.35;;
11328;SDS011;5719;42.714;23.732;2023-05-10T11:23:18;4.90;;;2.33;;
11328;SDS011;5719;42.714;23.732;2023-05-10T11:25:46;5.70;;;2.25;;
11328;SDS011;5719;42.714;23.732;2023-05-10T11:28:16;5.93;;;2.20;;
11328;SDS011;5719;42.714;23.732;2023-05-10T11:30:44;4.18;;;2.10;;
11328;SDS011;5719;42.714;23.732;2023-05-10T11:33:14;2.85;;;2.20;;
11328;SDS011;5719;42.714;23.732;2023-05-10T11:35:43;2.28;;;2.08;;
11328;SDS011;5719;42.714;23.732;2023-05-10T11:38:10;5.07;;;2.10;;
11328;SDS011;5719;42.714;23.732;2023-05-10T11:40:40;7.57;;;2.58;;
11328;SDS011;5719;42.714;23.732;2023-05-10T11:43:08;6.60;;;2.28;;
11328;SDS011;5719;42.714;23.732;2023-05-10T11:45:36;5.32;;;2.65;;
11328;SDS011;5719;42.714;23.732;2023-05-10T11:48:03;2.47;;;2.28;;
11328;SDS011;5719;42.714;23.732;2023-05-10T11:50:31;3.42;;;2.35;;
11328;SDS011;5719;42.714;23.732;2023-05-10T11:52:58;2.45;;;2.35;;
11328;SDS011;5719;42.714;23.732;2023-05-10T11:55:25;2.72;;;2.05;;
11328;SDS011;5719;42.714;23.732;2023-05-10T11:57:54;6.55;;;2.33;;
11328;SDS011;5719;42.714;23.732;2023-05-10T12:00:21;9.57;;;2.15;;
11328;SDS011;5719;42.714;23.732;2023-05-10T12:02:48;8.25;;;2.20;;
11328;SDS011;5719;42.714;23.732;2023-05-10T12:05:15;5.32;;;2.28;;
11328;SDS011;5719;42.714;23.732;2023-05-10T12:07:44;3.33;;;1.90;;
11328;SDS011;5719;42.714;23.732;2023-05-10T12:10:11;3.30;;;2.28;;
11328;SDS011;5719;42.714;23.732;2023-05-10T12:12:40;4.18;;;2.22;;
11328;SDS011;5719;42.714;23.732;2023-05-10T12:15:16;2.47;;;1.88;;
11328;SDS011;5719;42.714;23.732;2023-05-10T12:17:46;3.20;;;2.05;;
11328;SDS011;5719;42.714;23.732;2023-05-10T12:20:14;2.17;;;1.98;;
11328;SDS011;5719;42.714;23.732;2023-05-10T12:22:52;3.90;;;2.00;;
11328;SDS011;5719;42.714;23.732;2023-05-10T12:25:21;5.20;;;2.20;;
11328;SDS011;5719;42.714;23.732;2023-05-10T12:27:53;2.55;;;1.98;;
11328;SDS011;5719;42.714;23.732;2023-05-10T12:30:23;2.92;;;2.40;;
11328;SDS011;5719;42.714;23.732;2023-05-10T12:32:52;2.22;;;2.00;;
11328;SDS011;5719;42.714;23.732;2023-05-10T12:35:19;3.05;;;1.75;;
11328;SDS011;5719;42.714;23.732;2023-05-10T12:37:49;2.50;;;2.30;;
11328;SDS011;5719;42.714;23.732;2023-05-10T12:40:17;5.20;;;1.77;;
11328;SDS011;5719;42.714;23.732;2023-05-10T12:42:44;2.92;;;1.83;;
11328;SDS011;5719;42.714;23.732;2023-05-10T12:45:11;4.78;;;1.90;;
11328;SDS011;5719;42.714;23.732;2023-05-10T12:47:39;3.95;;;2.20;;
11328;SDS011;5719;42.714;23.732;2023-05-10T12:50:06;12.10;;;2.45;;
11328;SDS011;5719;42.714;23.732;2023-05-10T12:52:34;6.72;;;2.10;;
11328;SDS011;5719;42.714;23.732;2023-05-10T12:55:01;5.05;;;1.80;;
11328;SDS011;5719;42.714;23.732;2023-05-10T12:57:28;1.80;;;1.70;;
11328;SDS011;5719;42.714;23.732;2023-05-10T12:59:55;1.80;;;1.70;;
11328;SDS011;5719;42.714;23.732;2023-05-10T13:02:22;1.98;;;1.73;;
11328;SDS011;5719;42.714;23.732;2023-05-10T13:04:52;2.28;;;2.05;;
11328;SDS011;5719;42.714;23.732;2023-05-10T13:07:19;2.00;;;1.67;;
11328;SDS011;5719;42.714;23.732;2023-05-10T13:09:47;8.68;;;1.80;;
11328;SDS011;5719;42.714;23.732;2023-05-10T13:12:14;3.75;;;1.65;;
11328;SDS011;5719;42.714;23.732;2023-05-10T13:14:41;9.55;;;1.90;;
11328;SDS011;5719;42.714;23.732;2023-05-10T13:17:08;2.35;;;1.50;;
11328;SDS011;5719;42.714;23.732;2023-05-10T13:19:35;6.57;;;1.90;;
11328;SDS011;5719;42.714;23.732;2023-05-10T13:22:03;1.52;;;1.40;;
11328;SDS011;5719;42.714;23.732;2023-05-10T13:24:31;5.63;;;1.65;;
11328;SDS011;5719;42.714;23.732;2023-05-10T13:26:58;2.85;;;1.73;;
11328;SDS011;5719;42.714;23.732;2023-05-10T13:29:25;2.88;;;1.58;;
11328;SDS011;5719;42.714;23.732;2023-05-10T13:31:52;3.70;;;1.50;;
11328;SDS011;5719;42.714;23.732;2023-05-10T13:34:19;2.72;;;1.70;;
11328;SDS011;5719;42.714;23.732;2023-05-10T13:40:28;2.97;;;1.60;;
11328;SDS011;5719;42.714;23.732;2023-05-10T13:42:56;5.78;;;2.00;;
11328;SDS011;5719;42.714;23.732;2023-05-10T13:45:23;9.55;;;1.90;;
11328;SDS011;5719;42.714;23.732;2023-05-10T13:47:50;4.18;;;1.70;;
11328;SDS011;5719;42.714;23.732;2023-05-10T13:50:17;3.83;;;1.80;;
11328;SDS011;5719;42.714;23.732;2023-05-10T13:52:44;3.47;;;1.80;;
11328;SDS011;5719;42.714;23.732;2023-05-10T13:55:11;4.70;;;1.80;;
11328;SDS011;5719;42.714;23.732;2023-05-10T13:57:57;2.42;;;1.50;;
11328;SDS011;5719;42.714;23.732;2023-05-10T14:00:24;1.95;;;1.55;;
11328;SDS011;5719;42.714;23.732;2023-05-10T14:02:51;3.20;;;1.45;;
11328;SDS011;5719;42.714;23.732;2023-05-10T14:05:18;1.73;;;1.63;;
11328;SDS011;5719;42.714;23.732;2023-05-10T14:07:46;2.08;;;1.58;;
11328;SDS011;5719;42.714;23.732;2023-05-10T14:10:13;2.55;;;1.63;;
11328;SDS011;5719;42.714;23.732;2023-05-10T14:12:40;3.67;;;1.60;;
11328;SDS011;5719;42.714;23.732;2023-05-10T14:15:09;2.45;;;1.65;;
11328;SDS011;5719;42.714;23.732;2023-05-10T14:17:36;3.03;;;1.80;;
11328;SDS011;5719;42.714;23.732;2023-05-10T14:20:04;4.40;;;2.10;;
11328;SDS011;5719;42.714;23.732;2023-05-10T14:22:32;2.33;;;2.00;;
11328;SDS011;5719;42.714;23.732;2023-05-10T14:24:58;5.88;;;2.10;;
11328;SDS011;5719;42.714;23.732;2023-05-10T14:27:26;4.22;;;2.05;;
11328;SDS011;5719;42.714;23.732;2023-05-10T14:29:53;2.92;;;2.15;;
11328;SDS011;5719;42.714;23.732;2023-05-10T14:32:21;4.22;;;2.10;;
11328;SDS011;5719;42.714;23.732;2023-05-10T14:34:48;6.00;;;2.20;;
11328;SDS011;5719;42.714;23.732;2023-05-10T14:37:15;5.38;;;2.10;;
11328;SDS011;5719;42.714;23.732;2023-05-10T14:39:42;2.35;;;2.00;;
11328;SDS011;5719;42.714;23.732;2023-05-10T14:42:09;2.88;;;2.10;;
11328;SDS011;5719;42.714;23.732;2023-05-10T14:44:36;7.03;;;2.10;;
11328;SDS011;5719;42.714;23.732;2023-05-10T14:47:03;9.00;;;2.30;;
11328;SDS011;5719;42.714;23.732;2023-05-10T14:49:31;3.75;;;2.55;;
11328;SDS011;5719;42.714;23.732;2023-05-10T14:51:58;3.00;;;2.22;;
11328;SDS011;5719;42.714;23.732;2023-05-10T14:54:25;2.40;;;2.20;;
11328;SDS011;5719;42.714;23.732;2023-05-10T14:56:52;2.30;;;1.95;;
11328;SDS011;5719;42.714;23.732;2023-05-10T14:59:20;2.30;;;2.10;;
11328;SDS011;5719;42.714;23.732;2023-05-10T15:01:47;4.78;;;2.70;;
11328;SDS011;5719;42.714;23.732;2023-05-10T15:04:14;2.65;;;2.40;;
11328;SDS011;5719;42.714;23.732;2023-05-10T15:06:43;6.65;;;2.92;;
11328;SDS011;5719;42.714;23.732;2023-05-10T15:09:10;3.03;;;2.83;;
11328;SDS011;5719;42.714;23.732;2023-05-10T15:11:37;3.42;;;3.13;;
11328;SDS011;5719;42.714;23.732;2023-05-10T15:14:04;3.58;;;2.95;;
11328;SDS011;5719;42.714;23.732;2023-05-10T15:16:31;6.43;;;2.72;;
11328;SDS011;5719;42.714;23.732;2023-05-10T15:18:58;5.30;;;3.20;;
11328;SDS011;5719;42.714;23.732;2023-05-10T15:21:25;8.48;;;2.85;;
11328;SDS011;5719;42.714;23.732;2023-05-10T15:23:54;3.78;;;3.38;;
11328;SDS011;5719;42.714;23.732;2023-05-10T15:26:21;5.20;;;3.20;;
11328;SDS011;5719;42.714;23.732;2023-05-10T15:28:49;7.65;;;3.58;;
11328;SDS011;5719;42.714;23.732;2023-05-10T15:31:16;4.28;;;3.22;;
11328;SDS011;5719;42.714;23.732;2023-05-10T15:33:42;6.53;;;3.50;;
11328;SDS011;5719;42.714;23.732;2023-05-10T15:36:09;7.22;;;3.45;;
11328;SDS011;5719;42.714;23.732;2023-05-10T15:38:36;4.53;;;3.58;;
11328;SDS011;5719;42.714;23.732;2023-05-10T15:41:05;7.38;;;3.72;;
11328;SDS011;5719;42.714;23.732;2023-05-10T15:43:32;4.53;;;3.60;;
11328;SDS011;5719;42.714;23.732;2023-05-10T15:45:59;6.65;;;3.67;;
11328;SDS011;5719;42.714;23.732;2023-05-10T15:48:26;11.73;;;3.97;;
11328;SDS011;5719;42.714;23.732;2023-05-10T15:50:56;5.13;;;4.00;;
11328;SDS011;5719;42.714;23.732;2023-05-10T15:53:23;4.30;;;3.70;;
11328;SDS011;5719;42.714;23.732;2023-05-10T15:55:50;4.70;;;3.97;;
11328;SDS011;5719;42.714;23.732;2023-05-10T15:58:18;4.13;;;3.72;;
11328;SDS011;5719;42.714;23.732;2023-05-10T16:00:45;5.30;;;3.20;;
11328;SDS011;5719;42.714;23.732;2023-05-10T16:03:13;5.40;;;3.40;;
11328;SDS011;5719;42.714;23.732;2023-05-10T16:05:40;5.00;;;3.05;;